CheckWX is a tool to help pilots better visualize weather data.  It is not intended as a substitute for an official pre-flight weather briefing.

03:18:53 UTC

FVKB METAR
Kariba International Airport
Kariba, Zimbabwe
Current

12 hours ago

FVKB 261500Z 28003KT CAVOK 25/16 Q1017
Observed
May-26 @ 15:00 UTC
Wind
  • 280° at 3 KTS
Visibility
10,000+ meters
Flight Rules
VFR
Cloud Levels
  • Clear skies
Temperature
25°C / 77°F
Dewpoint
16°C / 61°F
Humidity
57%
Altimeter
30.03" Hg
Pressure
1016.92 hPa
Previous

21 hours ago

FVKB 260600Z 00000KT CAVOK 20/11 Q1021
Observed
May-26 @ 06:00 UTC
Visibility
10,000+ meters
Flight Rules
VFR
Cloud Levels
  • Clear skies
Temperature
20°C / 68°F
Dewpoint
11°C / 52°F
Humidity
56%
Altimeter
30.15" Hg
Pressure
1020.92 hPa